Strona główna
METAR-TAF:

METAR-TAF

Lotnisko :

Port lotniczy Duszanbe

Duszanbe, Tadżykistan

Szerokość geograficzna: 38-33N, Długość geograficzna: 068-47E, wysokość: 803 m

Aktualna obserwacja pogody

Raport powstał 26 minut temu, godzina 10:30 UTC
Cisza
Temperatura 18°C
Wilgotność 20%
Ciśnienie 1018 hPa
Widzialność 10 km lub więcej
Mało chmury na wysokości 6600 ft

METAR: UTDD 191030Z 00000MPS 9999 FEW066 18/M05 Q1018 R09/D NOSIG RMK QFE695/0927

czas: 15:56 (10:56 UTC)

Prognoza

Raport powstał 1 godzina i 56 minut temu, godzina 09:00 UTC
Prognoza ważna od 19 godzina 10 UTC do 19 godzina 22 UTC
Wiatr 4 kt z kierunków zmiennych
Widzialność: 3100 m
Rozproszone chmury na wysokości 5000 ft, Cumulonimbus.
Przerywane chmury na wysokości 10000 ft
zamglenie, dym
Przejściowo
od 19 godzina 16 UTC do 19 godzina 22 UTC
Widzialność: 1500 m
zamglenie, dym

TAF: UTDD 190900Z 1910/1922 VRB02MPS 3100 BR FU SCT050CB BKN100 TEMPO 1916/1922 1500 BR FU

Obserwacja i prognoza pogody dla ponad 4000 lotnisk (raport METAR i TAF).

Dostępne stacje oznaczono żółtymi i czerwonymi punktami na mapie.

Najedź kursorem aby zobaczyć nazwę stacji.

Kliknij aby zobaczyć obserwacje i prognozy pogody.

Aby zmienić mapę: kliknij na zielony przycisk z czarnym krzyżykiem, aby powiększyć; na zielony przycisk z myślnikiem, aby pomniejszyć; na zielone strzałki, aby przejść do map sąsiednich.


METAR-TAF: